createdAt,value
2019-03-15T00:01:44.684Z,7.62
2019-03-15T00:04:40.368Z,7.80
2019-03-15T00:07:36.541Z,7.65
2019-03-15T00:10:25.630Z,7.42
2019-03-15T00:13:08.289Z,7.53
2019-03-15T00:16:03.758Z,7.28
2019-03-15T00:18:59.406Z,7.08
2019-03-15T00:21:49.479Z,7.10
2019-03-15T00:24:32.500Z,7.08
2019-03-15T00:27:22.974Z,7.05
2019-03-15T00:29:59.852Z,7.42
2019-03-15T00:32:51.540Z,7.25
2019-03-15T00:35:28.158Z,7.20
2019-03-15T00:38:18.119Z,7.28
2019-03-15T00:40:54.226Z,7.30
2019-03-15T00:43:45.251Z,7.30
2019-03-15T00:46:21.617Z,7.33
2019-03-15T00:49:12.544Z,7.42
2019-03-15T00:51:56.270Z,8.35
2019-03-15T00:54:51.888Z,12.78
2019-03-15T00:57:41.219Z,14.70
2019-03-15T01:00:31.240Z,17.25
2019-03-15T01:03:20.851Z,16.93
2019-03-15T01:05:57.829Z,17.48
2019-03-15T01:08:47.687Z,18.80
2019-03-15T01:11:24.559Z,18.12
2019-03-15T01:14:20.992Z,21.27
2019-03-15T01:17:09.961Z,22.50
2019-03-15T01:19:46.388Z,24.63
2019-03-15T01:22:37.015Z,25.12
2019-03-15T01:25:16.327Z,29.07
2019-03-15T01:28:05.889Z,27.95
2019-03-15T01:30:42.732Z,28.25
2019-03-15T01:33:32.493Z,31.05
2019-03-15T01:36:15.429Z,29.45
2019-03-15T01:38:59.311Z,30.23
2019-03-15T01:41:41.639Z,34.08
2019-03-15T01:44:24.621Z,33.73
2019-03-15T01:47:19.725Z,34.55
2019-03-15T01:50:11.408Z,33.02
2019-03-15T01:52:48.188Z,34.58
2019-03-15T01:55:37.620Z,34.60
2019-03-15T01:58:13.732Z,31.80
2019-03-15T02:01:04.516Z,33.35
2019-03-15T02:03:42.324Z,33.02
2019-03-15T02:06:32.421Z,32.67
2019-03-15T02:09:14.677Z,30.55
2019-03-15T02:11:58.034Z,29.20
2019-03-15T02:14:54.475Z,28.83
2019-03-15T02:17:49.409Z,26.90
2019-03-15T02:20:39.585Z,27.70
2019-03-15T02:23:16.015Z,25.35
2019-03-15T02:26:05.194Z,24.20
2019-03-15T02:28:43.148Z,25.85
2019-03-15T02:31:32.708Z,26.17
2019-03-15T02:34:09.512Z,25.43
2019-03-15T02:36:59.926Z,26.27
2019-03-15T02:39:42.913Z,25.57
2019-03-15T02:42:26.417Z,26.12
2019-03-15T02:45:10.020Z,27.07
2019-03-15T02:47:53.209Z,27.17
2019-03-15T02:50:36.307Z,27.13
2019-03-15T02:53:20.081Z,27.40
2019-03-15T02:56:03.026Z,29.52
2019-03-15T02:58:46.648Z,31.48
2019-03-15T03:01:29.713Z,31.15
2019-03-15T03:04:14.547Z,31.68
2019-03-15T03:06:57.754Z,33.02
2019-03-15T03:09:48.228Z,35.92
2019-03-15T03:12:25.176Z,33.95
2019-03-15T03:15:22.454Z,35.65
2019-03-15T03:18:12.341Z,36.30
2019-03-15T03:20:50.313Z,38.63
2019-03-15T03:23:41.378Z,37.08
2019-03-15T03:26:19.128Z,39.20
2019-03-15T03:29:09.610Z,40.48
2019-03-15T03:31:52.711Z,39.73
2019-03-15T03:34:37.255Z,39.70
2019-03-15T03:37:20.582Z,39.27
2019-03-15T03:40:03.699Z,37.30
2019-03-15T03:42:52.753Z,38.85
2019-03-15T03:45:36.380Z,38.30
2019-03-15T03:48:19.127Z,39.67
2019-03-15T03:51:05.388Z,40.85
2019-03-15T03:53:49.461Z,39.85
2019-03-15T03:56:33.201Z,40.35
2019-03-15T03:59:22.657Z,42.00
2019-03-15T04:02:06.322Z,41.65
2019-03-15T04:04:49.897Z,40.08
2019-03-15T04:07:33.421Z,41.02
2019-03-15T04:10:17.580Z,40.78
2019-03-15T04:13:10.026Z,40.38
2019-03-15T04:15:47.160Z,40.25
2019-03-15T04:18:44.681Z,41.68
2019-03-15T04:21:39.843Z,42.43
2019-03-15T04:24:30.904Z,41.15
2019-03-15T04:27:07.700Z,40.12
2019-03-15T04:29:58.133Z,42.08
2019-03-15T04:32:34.502Z,39.38
2019-03-15T04:35:24.167Z,39.67
2019-03-15T04:38:07.234Z,39.90
2019-03-15T04:40:57.329Z,40.10
2019-03-15T04:43:40.840Z,39.98
2019-03-15T04:46:38.124Z,40.60
2019-03-15T04:49:28.171Z,38.53
2019-03-15T04:52:04.947Z,39.53
2019-03-15T04:54:56.254Z,39.15
2019-03-15T04:57:32.887Z,38.55
2019-03-15T05:00:23.590Z,38.50
2019-03-15T05:03:00.032Z,37.45
2019-03-15T05:06:02.463Z,38.85
2019-03-15T05:08:28.660Z,39.03
2019-03-15T05:11:19.071Z,37.58
2019-03-15T05:13:58.545Z,39.15
2019-03-15T05:16:47.340Z,37.95
2019-03-15T05:19:30.552Z,40.25
2019-03-15T05:22:26.420Z,38.42
2019-03-15T05:25:22.018Z,39.35
2019-03-15T05:28:11.284Z,39.30
2019-03-15T05:31:00.542Z,38.88
2019-03-15T05:33:43.560Z,39.30
2019-03-15T05:36:32.570Z,41.23
2019-03-15T05:39:22.197Z,39.38
2019-03-15T05:41:58.398Z,37.88
2019-03-15T05:44:49.124Z,37.25
2019-03-15T05:47:25.165Z,37.63
2019-03-15T05:50:18.131Z,37.55
2019-03-15T05:53:01.809Z,35.52
2019-03-15T05:55:50.977Z,36.60
2019-03-15T05:58:27.349Z,36.23
2019-03-15T06:01:18.371Z,37.15
2019-03-15T06:03:54.856Z,37.00
2019-03-15T06:06:43.835Z,38.60
2019-03-15T06:09:20.995Z,37.55
2019-03-15T06:12:10.574Z,37.80
2019-03-15T06:14:47.319Z,37.80
2019-03-15T06:17:36.917Z,36.75
2019-03-15T06:20:18.595Z,39.05
2019-03-15T06:23:08.635Z,38.75
2019-03-15T06:25:45.182Z,37.95
2019-03-15T06:28:35.391Z,38.40
2019-03-15T06:31:12.395Z,40.05
2019-03-15T06:34:01.973Z,38.78
2019-03-15T06:36:46.567Z,40.43
2019-03-15T06:39:38.815Z,37.73
2019-03-15T06:42:21.821Z,38.02
2019-03-15T06:45:16.965Z,38.20
2019-03-15T06:47:53.869Z,36.30
2019-03-15T06:50:44.208Z,36.58
2019-03-15T06:53:27.768Z,34.40
2019-03-15T06:56:17.504Z,33.35
2019-03-15T06:58:53.722Z,36.33
2019-03-15T07:01:43.931Z,35.63
2019-03-15T07:04:20.663Z,35.55
2019-03-15T07:07:11.080Z,36.33
2019-03-15T07:09:54.358Z,34.70
2019-03-15T07:12:50.021Z,33.53
2019-03-15T07:15:40.009Z,35.43
2019-03-15T07:18:18.925Z,35.70
2019-03-15T07:21:15.669Z,34.98
2019-03-15T07:24:24.083Z,33.10
2019-03-15T07:27:13.132Z,32.00
2019-03-15T07:30:05.371Z,30.80
2019-03-15T07:32:54.544Z,33.28
2019-03-15T07:35:39.216Z,31.62
2019-03-15T07:38:36.772Z,33.28
2019-03-15T07:41:26.551Z,32.38
2019-03-15T07:44:03.472Z,33.63
2019-03-15T07:46:54.083Z,33.67
2019-03-15T07:49:30.130Z,32.80
2019-03-15T07:52:20.486Z,33.23
2019-03-15T07:55:03.596Z,31.65
2019-03-15T07:57:52.912Z,32.13
2019-03-15T08:00:29.504Z,32.20
2019-03-15T08:03:20.190Z,30.72
2019-03-15T08:06:02.669Z,33.95
2019-03-15T08:08:46.101Z,30.62
2019-03-15T08:11:30.004Z,29.98
2019-03-15T08:14:12.711Z,28.40
2019-03-15T08:17:02.102Z,29.27
2019-03-15T08:19:44.801Z,27.58
2019-03-15T08:22:41.462Z,26.93
2019-03-15T08:25:37.953Z,27.22
2019-03-15T08:28:33.064Z,28.23
2019-03-15T08:31:23.406Z,26.40
2019-03-15T08:34:00.136Z,24.32
2019-03-15T08:36:50.665Z,25.40
2019-03-15T08:39:26.572Z,25.02
2019-03-15T08:42:16.796Z,23.80
2019-03-15T08:44:53.669Z,24.52
2019-03-15T08:47:43.527Z,23.73
2019-03-15T08:50:24.612Z,27.67
2019-03-15T08:53:14.333Z,25.40
2019-03-15T08:55:57.844Z,24.15
2019-03-15T08:58:46.897Z,25.90
2019-03-15T09:01:29.894Z,26.82
2019-03-15T09:04:21.602Z,26.10
2019-03-15T09:06:58.014Z,26.42
2019-03-15T09:09:47.515Z,26.20
2019-03-15T09:12:24.232Z,26.97
2019-03-15T09:15:15.903Z,26.73
2019-03-15T09:17:57.962Z,26.83
2019-03-15T09:20:42.049Z,28.10
2019-03-15T09:23:37.160Z,26.52
2019-03-15T09:26:32.087Z,28.57
2019-03-15T09:29:29.054Z,30.12
2019-03-15T09:32:24.463Z,29.18
2019-03-15T09:35:20.540Z,28.95
2019-03-15T09:38:17.281Z,30.27
2019-03-15T09:41:12.477Z,28.85
2019-03-15T09:44:08.093Z,28.15
2019-03-15T09:47:04.766Z,27.02
2019-03-15T09:49:54.018Z,26.52
2019-03-15T09:52:30.772Z,25.92
2019-03-15T09:55:32.347Z,25.35
2019-03-15T09:58:05.781Z,24.87
2019-03-15T10:01:01.296Z,24.75
2019-03-15T10:03:51.191Z,25.97
2019-03-15T10:06:33.886Z,24.55
2019-03-15T10:09:30.467Z,25.82
2019-03-15T10:12:19.800Z,25.02
2019-03-15T10:15:02.899Z,24.63
2019-03-15T10:17:51.151Z,25.55
2019-03-15T10:20:34.267Z,24.37
2019-03-15T10:23:23.250Z,25.12
2019-03-15T10:26:14.973Z,25.62
2019-03-15T10:28:51.312Z,26.37
2019-03-15T10:31:41.320Z,24.87
2019-03-15T10:34:17.896Z,23.67
2019-03-15T10:37:08.359Z,25.45
2019-03-15T10:39:44.938Z,25.70
2019-03-15T10:42:35.357Z,24.90
2019-03-15T10:45:16.210Z,25.50
2019-03-15T10:48:08.217Z,24.15
2019-03-15T10:50:45.128Z,25.30
2019-03-15T10:53:35.619Z,24.25
2019-03-15T10:56:12.510Z,24.18
2019-03-15T10:59:03.223Z,24.27
2019-03-15T11:01:40.162Z,25.12
2019-03-15T11:04:30.407Z,24.63
2019-03-15T11:07:13.637Z,24.07
2019-03-15T11:10:09.985Z,23.32
2019-03-15T11:13:05.379Z,25.45
2019-03-15T11:16:00.939Z,25.02
2019-03-15T11:18:50.779Z,25.30
2019-03-15T11:21:26.719Z,25.65
2019-03-15T11:24:23.524Z,24.85
2019-03-15T11:27:21.199Z,25.75
2019-03-15T11:30:13.886Z,26.35
2019-03-15T11:32:50.782Z,25.17
2019-03-15T11:35:42.787Z,24.70
2019-03-15T11:38:26.091Z,24.67
2019-03-15T11:41:09.174Z,25.65
2019-03-15T11:43:53.237Z,26.23
2019-03-15T11:46:36.645Z,25.23
2019-03-15T11:49:28.239Z,26.30
2019-03-15T11:52:08.487Z,26.17
2019-03-15T11:54:59.019Z,25.68
2019-03-15T11:57:41.830Z,24.87
2019-03-15T12:00:28.145Z,25.00
2019-03-15T12:03:11.027Z,25.52
2019-03-15T12:05:53.394Z,26.82
2019-03-15T12:08:36.981Z,26.80
2019-03-15T12:11:20.726Z,26.52
2019-03-15T12:14:09.954Z,24.90
2019-03-15T12:16:59.276Z,27.25
2019-03-15T12:19:36.250Z,27.27
2019-03-15T12:22:26.593Z,26.50
2019-03-15T12:25:11.027Z,26.87
2019-03-15T12:27:54.982Z,26.82
2019-03-15T12:30:37.848Z,26.23
2019-03-15T12:33:20.326Z,27.42
2019-03-15T12:36:05.760Z,27.77
2019-03-15T12:38:51.947Z,28.12
2019-03-15T12:41:36.622Z,27.90
2019-03-15T12:44:19.705Z,29.80
2019-03-15T12:47:06.056Z,26.97
2019-03-15T12:49:50.204Z,29.05
2019-03-15T12:52:46.587Z,26.97
2019-03-15T12:55:33.985Z,26.97
2019-03-15T12:58:17.539Z,26.37
2019-03-15T13:01:08.928Z,25.85
2019-03-15T13:03:52.919Z,27.52
2019-03-15T13:06:43.174Z,25.43
2019-03-15T13:09:27.493Z,25.45
2019-03-15T13:12:22.604Z,26.90
2019-03-15T13:14:59.048Z,25.23
2019-03-15T13:17:49.450Z,25.15
2019-03-15T13:20:35.228Z,23.92
2019-03-15T13:23:25.158Z,23.98
2019-03-15T13:26:20.215Z,23.73
2019-03-15T13:29:09.455Z,24.60
2019-03-15T13:31:52.135Z,24.27
2019-03-15T13:34:42.249Z,22.42
2019-03-15T13:37:26.309Z,22.42
2019-03-15T13:40:24.734Z,23.35
2019-03-15T13:43:02.077Z,22.40
2019-03-15T13:45:55.157Z,22.67
2019-03-15T13:48:31.564Z,20.97
2019-03-15T13:51:22.853Z,22.20
2019-03-15T13:54:06.610Z,32.93
2019-03-15T13:56:57.122Z,19.90
2019-03-15T13:59:41.351Z,20.92
2019-03-15T14:02:25.484Z,20.20
2019-03-15T14:05:16.077Z,19.60
2019-03-15T14:08:11.656Z,19.17
2019-03-15T14:10:55.435Z,19.45
2019-03-15T14:13:31.963Z,20.17
2019-03-15T14:16:21.131Z,20.08
2019-03-15T14:18:57.634Z,19.25
2019-03-15T14:21:48.792Z,18.07
2019-03-15T14:24:25.071Z,17.62
2019-03-15T14:27:15.893Z,17.67
2019-03-15T14:30:05.357Z,17.40
2019-03-15T14:32:47.675Z,17.20
2019-03-15T14:35:31.289Z,16.70
2019-03-15T14:38:14.411Z,16.77
2019-03-15T14:40:57.512Z,16.82
2019-03-15T14:43:46.847Z,16.40
2019-03-15T14:46:30.818Z,15.85
2019-03-15T14:49:13.135Z,95.17
2019-03-15T14:51:59.169Z,14.07
2019-03-15T14:54:47.413Z,14.63
2019-03-15T14:57:30.381Z,19.12
2019-03-15T15:00:19.860Z,15.68
2019-03-15T15:03:09.844Z,15.70
2019-03-15T15:05:52.953Z,16.00
2019-03-15T15:08:50.144Z,15.78
2019-03-15T15:11:39.479Z,16.15
2019-03-15T15:14:23.125Z,16.85
2019-03-15T15:17:18.425Z,19.95
2019-03-15T15:20:13.881Z,21.90
2019-03-15T15:23:08.830Z,21.52
2019-03-15T15:25:59.555Z,23.10
2019-03-15T15:28:37.929Z,22.15
2019-03-15T15:31:27.679Z,23.10
2019-03-15T15:34:04.645Z,23.12
2019-03-15T15:36:55.259Z,22.55
2019-03-15T15:39:38.902Z,22.90
2019-03-15T15:42:29.184Z,23.42
2019-03-15T15:45:13.658Z,21.77
2019-03-15T15:48:09.304Z,21.17
2019-03-15T15:50:59.038Z,20.85
2019-03-15T15:53:42.334Z,20.95
2019-03-15T15:56:25.590Z,23.05
2019-03-15T15:59:15.241Z,21.73
2019-03-15T16:02:10.448Z,20.12
2019-03-15T16:04:54.486Z,20.95
2019-03-15T16:07:44.937Z,22.10
2019-03-15T16:10:21.668Z,20.02
2019-03-15T16:13:17.303Z,20.85
2019-03-15T16:15:56.987Z,19.95
2019-03-15T16:18:41.237Z,21.53
2019-03-15T16:21:25.158Z,20.20
2019-03-15T16:24:11.139Z,22.17
2019-03-15T16:26:56.033Z,21.17
2019-03-15T16:29:45.806Z,21.12
2019-03-15T16:32:29.082Z,20.45
2019-03-15T16:35:16.299Z,21.77
2019-03-15T16:37:59.779Z,22.55
2019-03-15T16:40:43.031Z,23.22
2019-03-15T16:43:26.410Z,22.07
2019-03-15T16:46:09.219Z,22.58
2019-03-15T16:48:53.942Z,22.93
2019-03-15T16:51:30.938Z,23.22
2019-03-15T16:54:27.462Z,30.97
2019-03-15T16:57:23.800Z,26.62
2019-03-15T17:00:19.333Z,24.07
2019-03-15T17:02:55.576Z,23.47
2019-03-15T17:05:46.403Z,22.65
2019-03-15T17:08:22.877Z,23.65
2019-03-15T17:11:13.814Z,23.05
2019-03-15T17:13:58.447Z,23.25
2019-03-15T17:16:48.785Z,23.52
2019-03-15T17:19:31.786Z,26.05
2019-03-15T17:22:27.380Z,26.25
2019-03-15T17:25:25.232Z,27.95
2019-03-15T17:28:15.456Z,28.10
2019-03-15T17:31:08.779Z,28.77
2019-03-15T17:33:46.583Z,27.77
2019-03-15T17:36:23.504Z,29.65
2019-03-15T17:39:14.777Z,29.90
2019-03-15T17:41:52.182Z,30.77
2019-03-15T17:44:41.588Z,29.40
2019-03-15T17:47:24.985Z,29.75
2019-03-15T17:50:20.337Z,28.87
2019-03-15T17:52:57.932Z,30.95
2019-03-15T17:55:47.507Z,31.48
2019-03-15T17:58:30.906Z,31.37
2019-03-15T18:01:27.959Z,31.60
2019-03-15T18:04:23.246Z,31.40
2019-03-15T18:07:15.711Z,31.82
2019-03-15T18:10:00.058Z,31.37
2019-03-15T18:12:55.891Z,31.20
2019-03-15T18:15:53.789Z,30.72
2019-03-15T18:18:49.617Z,31.00
2019-03-15T18:21:45.476Z,29.48
2019-03-15T18:24:36.779Z,29.10
2019-03-15T18:27:13.458Z,27.82
2019-03-15T18:30:10.147Z,29.27
2019-03-15T18:33:07.556Z,29.20
2019-03-15T18:36:02.775Z,28.75
2019-03-15T18:38:58.118Z,30.40
2019-03-15T18:41:53.600Z,31.05
2019-03-15T18:44:49.455Z,30.68
2019-03-15T18:47:44.828Z,31.77
2019-03-15T18:50:37.049Z,29.90
2019-03-15T18:53:27.550Z,32.08
2019-03-15T18:56:24.696Z,32.70
2019-03-15T18:59:14.026Z,32.03
2019-03-15T19:01:50.815Z,32.05
2019-03-15T19:04:41.155Z,32.35
2019-03-15T19:07:17.086Z,32.17
2019-03-15T19:10:06.422Z,32.45
2019-03-15T19:12:42.425Z,31.40
2019-03-15T19:15:32.836Z,32.48
2019-03-15T19:18:09.803Z,31.10
2019-03-15T19:21:01.299Z,30.82
2019-03-15T19:23:37.360Z,31.42
2019-03-15T19:26:28.961Z,34.48
2019-03-15T19:29:06.430Z,32.28
2019-03-15T19:31:57.098Z,29.82
2019-03-15T19:34:33.385Z,34.70
2019-03-15T19:37:23.426Z,33.98
2019-03-15T19:40:05.878Z,33.08
2019-03-15T19:42:49.440Z,33.40
2019-03-15T19:45:32.216Z,31.55
2019-03-15T19:48:17.250Z,32.25
2019-03-15T19:51:00.322Z,34.40
2019-03-15T19:53:44.858Z,34.85
2019-03-15T19:56:34.291Z,35.65
2019-03-15T19:59:17.969Z,35.58
2019-03-15T20:02:00.848Z,34.92
2019-03-15T20:04:43.863Z,33.45
2019-03-15T20:07:26.273Z,33.78
2019-03-15T20:10:10.944Z,35.92
2019-03-15T20:13:02.681Z,34.13
2019-03-15T20:15:43.065Z,33.45
2019-03-15T20:18:33.715Z,33.80
2019-03-15T20:21:12.284Z,33.23
2019-03-15T20:24:02.365Z,35.90
2019-03-15T20:26:39.556Z,35.38
2019-03-15T20:29:29.271Z,34.85
2019-03-15T20:32:19.322Z,35.10
2019-03-15T20:35:09.830Z,35.88
2019-03-15T20:37:46.988Z,36.35
2019-03-15T20:40:36.830Z,37.45
2019-03-15T20:43:20.347Z,36.80
2019-03-15T20:46:16.474Z,34.43
2019-03-15T20:49:13.236Z,35.68
2019-03-15T20:52:07.257Z,35.23
2019-03-15T20:54:45.023Z,35.48
2019-03-15T20:57:35.542Z,35.58
2019-03-15T21:00:15.997Z,35.48
2019-03-15T21:03:06.091Z,45.55
2019-03-15T21:05:43.768Z,38.58
2019-03-15T21:08:33.628Z,36.33
2019-03-15T21:11:11.316Z,35.28
2019-03-15T21:14:00.940Z,34.10
2019-03-15T21:16:37.917Z,35.35
2019-03-15T21:19:27.928Z,35.38
2019-03-15T21:22:04.640Z,37.38
2019-03-15T21:24:53.955Z,34.83
2019-03-15T21:27:37.760Z,36.28
2019-03-15T21:30:33.341Z,35.75
2019-03-15T21:33:16.536Z,35.05
2019-03-15T21:36:01.876Z,35.78
2019-03-15T21:38:48.425Z,36.42
2019-03-15T21:41:30.709Z,36.42
2019-03-15T21:44:13.610Z,36.13
2019-03-15T21:47:00.386Z,37.00
2019-03-15T21:49:44.434Z,36.42
2019-03-15T21:52:32.222Z,36.95
2019-03-15T21:55:16.269Z,38.02
2019-03-15T21:58:13.008Z,38.28
2019-03-15T22:01:03.555Z,37.50
2019-03-15T22:03:40.426Z,38.33
2019-03-15T22:06:30.581Z,38.50
2019-03-15T22:09:08.103Z,38.15
2019-03-15T22:11:57.762Z,39.45
2019-03-15T22:14:34.920Z,39.13
2019-03-15T22:17:25.372Z,48.68
2019-03-15T22:20:02.554Z,44.50
2019-03-15T22:22:53.362Z,40.88
2019-03-15T22:25:30.190Z,40.30
2019-03-15T22:28:20.233Z,40.67
2019-03-15T22:30:56.193Z,39.42
2019-03-15T22:33:46.779Z,40.40
2019-03-15T22:36:29.934Z,39.03
2019-03-15T22:39:13.629Z,39.70
2019-03-15T22:41:57.117Z,37.48
2019-03-15T22:44:40.331Z,38.95
2019-03-15T22:47:24.329Z,40.60
2019-03-15T22:50:07.427Z,39.45
2019-03-15T22:52:51.503Z,41.08
2019-03-15T22:55:35.674Z,37.98
2019-03-15T22:58:19.711Z,38.75
2019-03-15T23:01:03.451Z,38.58
2019-03-15T23:03:52.876Z,38.48
2019-03-15T23:06:37.311Z,37.80
2019-03-15T23:09:21.410Z,37.83
2019-03-15T23:12:04.851Z,35.83
2019-03-15T23:14:47.177Z,34.85
2019-03-15T23:17:37.492Z,36.88
2019-03-15T23:20:23.543Z,36.60
2019-03-15T23:23:23.719Z,35.08
2019-03-15T23:26:11.660Z,33.60
2019-03-15T23:28:48.595Z,34.58
2019-03-15T23:31:43.879Z,32.53
2019-03-15T23:34:18.214Z,34.95
2019-03-15T23:37:07.938Z,33.65
2019-03-15T23:39:51.269Z,33.80
2019-03-15T23:42:46.365Z,34.43
2019-03-15T23:45:42.406Z,34.78
2019-03-15T23:48:31.915Z,35.00
2019-03-15T23:51:08.166Z,34.23
2019-03-15T23:53:58.626Z,34.58
2019-03-15T23:56:34.789Z,35.98
2019-03-15T23:59:25.150Z,35.03
